createdAt,value
2019-03-31T00:00:49.023Z,138.92
2019-03-31T00:03:20.056Z,151.70
2019-03-31T00:05:49.424Z,146.25
2019-03-31T00:08:18.793Z,147.87
2019-03-31T00:10:49.751Z,136.97
2019-03-31T00:13:19.156Z,151.63
2019-03-31T00:15:48.520Z,144.57
2019-03-31T00:18:17.926Z,153.60
2019-03-31T00:20:47.307Z,149.05
2019-03-31T00:23:16.688Z,158.52
2019-03-31T00:25:48.963Z,147.65
2019-03-31T00:28:18.325Z,149.50
2019-03-31T00:30:48.020Z,152.90
2019-03-31T00:33:17.453Z,159.30
2019-03-31T00:35:47.061Z,156.15
2019-03-31T00:38:16.439Z,153.12
2019-03-31T00:40:45.850Z,149.02
2019-03-31T00:43:15.222Z,154.00
2019-03-31T00:45:44.624Z,158.22
2019-03-31T00:48:13.978Z,166.25
2019-03-31T00:50:43.348Z,151.47
2019-03-31T00:53:12.707Z,152.93
2019-03-31T00:55:42.147Z,150.70
2019-03-31T00:58:11.571Z,155.55
2019-03-31T01:00:46.928Z,159.67
2019-03-31T01:03:19.774Z,156.50
2019-03-31T01:05:49.304Z,156.32
2019-03-31T01:08:18.805Z,159.43
2019-03-31T01:10:48.296Z,158.50
2019-03-31T01:13:18.412Z,164.30
2019-03-31T01:15:48.085Z,158.93
2019-03-31T01:18:19.054Z,159.60
2019-03-31T01:20:48.524Z,163.22
2019-03-31T01:23:17.897Z,168.43
2019-03-31T01:25:48.459Z,162.53
2019-03-31T01:28:17.972Z,171.77
2019-03-31T01:30:47.528Z,168.30
2019-03-31T01:33:17.807Z,175.65
2019-03-31T01:35:47.230Z,175.57
2019-03-31T01:38:16.654Z,172.17
2019-03-31T01:40:46.115Z,168.80
2019-03-31T01:43:15.462Z,178.50
2019-03-31T01:45:45.748Z,170.55
2019-03-31T01:48:16.431Z,169.72
2019-03-31T01:50:46.257Z,162.65
2019-03-31T01:53:16.847Z,175.97
2019-03-31T01:55:46.282Z,175.90
2019-03-31T01:58:16.814Z,173.30
2019-03-31T02:00:47.876Z,182.68
2019-03-31T02:03:17.480Z,179.90
2019-03-31T02:05:46.968Z,182.02
2019-03-31T02:08:16.326Z,185.23
2019-03-31T02:10:45.690Z,177.65
2019-03-31T02:13:15.035Z,183.20
2019-03-31T02:15:44.509Z,191.85
2019-03-31T02:18:14.006Z,187.43
2019-03-31T02:20:43.429Z,188.85
2019-03-31T02:23:12.801Z,188.72
2019-03-31T02:25:42.173Z,196.57
2019-03-31T02:28:11.721Z,182.82
2019-03-31T02:30:41.205Z,191.12
2019-03-31T02:33:10.548Z,196.53
2019-03-31T02:35:39.944Z,177.90
2019-03-31T02:38:09.394Z,193.13
2019-03-31T02:40:41.164Z,189.22
2019-03-31T02:43:10.530Z,203.53
2019-03-31T02:45:39.885Z,192.53
2019-03-31T02:48:10.935Z,186.10
2019-03-31T02:50:50.698Z,203.80
2019-03-31T02:53:20.614Z,196.37
2019-03-31T02:55:50.129Z,199.20
2019-03-31T02:58:20.051Z,196.03
2019-03-31T03:00:49.815Z,194.90
2019-03-31T03:03:20.622Z,203.07
2019-03-31T03:06:01.966Z,205.83
2019-03-31T03:08:33.785Z,193.57
2019-03-31T03:11:04.282Z,198.80
2019-03-31T03:13:35.234Z,202.38
2019-03-31T03:16:13.360Z,191.40
2019-03-31T03:18:42.725Z,188.10
2019-03-31T03:21:12.135Z,185.93
2019-03-31T03:23:41.564Z,197.32
2019-03-31T03:26:10.936Z,190.57
2019-03-31T03:28:40.318Z,180.72
2019-03-31T03:31:15.226Z,179.18
2019-03-31T03:33:41.179Z,188.52
2019-03-31T03:36:10.798Z,182.10
2019-03-31T03:38:40.336Z,180.55
2019-03-31T03:41:09.833Z,179.72
2019-03-31T03:43:54.152Z,173.68
2019-03-31T03:46:10.389Z,169.07
2019-03-31T03:48:39.832Z,168.87
2019-03-31T03:51:09.563Z,174.60
2019-03-31T03:53:39.013Z,167.85
2019-03-31T03:56:08.575Z,153.62
2019-03-31T03:58:37.935Z,156.32
2019-03-31T04:01:12.135Z,160.03
2019-03-31T04:03:41.567Z,138.37
2019-03-31T04:06:11.052Z,140.80
2019-03-31T04:08:40.513Z,129.93
2019-03-31T04:11:12.798Z,149.70
2019-03-31T04:16:10.832Z,131.53
2019-03-31T04:18:40.207Z,132.93
2019-03-31T04:21:09.637Z,113.42
2019-03-31T04:23:39.060Z,119.50
2019-03-31T04:26:08.429Z,114.65
2019-03-31T04:28:37.930Z,109.67
2019-03-31T04:31:07.281Z,103.45
2019-03-31T04:33:50.269Z,103.35
2019-03-31T04:36:07.698Z,103.40
2019-03-31T04:38:37.074Z,103.22
2019-03-31T04:41:06.424Z,106.58
2019-03-31T04:43:35.797Z,98.27
2019-03-31T04:46:05.565Z,88.85
2019-03-31T04:48:35.004Z,101.10
2019-03-31T04:51:04.477Z,94.15
2019-03-31T04:53:35.499Z,89.22
2019-03-31T04:56:05.527Z,98.72
2019-03-31T04:58:34.899Z,85.25
2019-03-31T05:01:04.396Z,86.02
2019-03-31T05:03:33.761Z,81.50
2019-03-31T05:06:03.112Z,83.82
2019-03-31T05:08:34.001Z,71.02
2019-03-31T05:11:03.893Z,81.30
2019-03-31T05:13:33.347Z,81.63
2019-03-31T05:16:02.767Z,72.32
2019-03-31T05:18:33.751Z,77.73
2019-03-31T05:21:03.182Z,84.15
2019-03-31T05:23:32.518Z,85.45
2019-03-31T05:26:01.880Z,78.90
2019-03-31T05:28:31.220Z,80.20
2019-03-31T05:31:00.577Z,77.92
2019-03-31T05:33:30.062Z,83.90
2019-03-31T05:35:59.429Z,79.03
2019-03-31T05:38:28.810Z,80.05
2019-03-31T05:40:58.311Z,86.65
2019-03-31T05:43:27.723Z,82.02
2019-03-31T05:45:57.142Z,84.05
2019-03-31T05:48:27.629Z,86.63
2019-03-31T05:50:57.016Z,91.63
2019-03-31T05:53:26.348Z,93.35
2019-03-31T05:55:55.700Z,97.37
2019-03-31T05:58:26.674Z,92.05
2019-03-31T06:00:56.015Z,87.65
2019-03-31T06:03:25.366Z,104.87
2019-03-31T06:05:55.863Z,90.35
2019-03-31T06:08:25.320Z,93.27
2019-03-31T06:10:54.670Z,88.82
2019-03-31T06:13:24.018Z,89.77
2019-03-31T06:15:53.383Z,85.30
2019-03-31T06:18:22.813Z,86.37
2019-03-31T06:20:52.173Z,74.58
2019-03-31T06:23:21.540Z,67.40
2019-03-31T06:25:50.945Z,68.20
2019-03-31T06:28:20.376Z,59.03
2019-03-31T06:30:50.123Z,66.85
2019-03-31T06:33:19.492Z,56.50
2019-03-31T06:35:48.831Z,57.08
2019-03-31T06:38:18.191Z,59.80
2019-03-31T06:40:52.144Z,61.90
2019-03-31T06:43:21.515Z,64.00
2019-03-31T06:45:50.940Z,57.98
2019-03-31T06:48:20.400Z,64.77
2019-03-31T06:50:49.889Z,60.75
2019-03-31T06:53:20.438Z,60.70
2019-03-31T06:55:49.858Z,64.40
2019-03-31T06:58:19.273Z,59.55
2019-03-31T07:00:48.710Z,58.95
2019-03-31T07:03:18.135Z,59.20
2019-03-31T07:05:47.496Z,47.15
2019-03-31T07:08:16.834Z,62.63
2019-03-31T07:10:46.424Z,50.90
2019-03-31T07:13:15.788Z,51.67
2019-03-31T07:15:45.313Z,57.65
2019-03-31T07:18:16.073Z,49.57
2019-03-31T07:20:45.593Z,41.65
2019-03-31T07:23:14.979Z,38.17
2019-03-31T07:25:44.402Z,44.30
2019-03-31T07:28:13.771Z,41.53
2019-03-31T07:30:44.080Z,41.13
2019-03-31T07:33:13.553Z,43.70
2019-03-31T07:35:42.949Z,47.45
2019-03-31T07:38:12.424Z,49.30
2019-03-31T07:40:42.064Z,44.15
2019-03-31T07:43:11.553Z,41.13
2019-03-31T07:45:40.959Z,49.95
2019-03-31T07:48:10.482Z,49.55
2019-03-31T07:50:39.907Z,50.67
2019-03-31T07:53:09.252Z,52.43
2019-03-31T07:55:38.605Z,44.45
2019-03-31T07:58:08.056Z,43.58
2019-03-31T08:00:37.398Z,48.55
2019-03-31T08:03:08.097Z,49.42
2019-03-31T08:05:37.820Z,51.40
2019-03-31T08:08:07.337Z,46.58
2019-03-31T08:10:36.704Z,45.78
2019-03-31T08:13:06.278Z,38.98
2019-03-31T08:15:35.720Z,43.65
2019-03-31T08:18:05.677Z,38.40
2019-03-31T08:20:35.167Z,38.53
2019-03-31T08:23:05.284Z,33.90
2019-03-31T08:25:34.648Z,28.40
2019-03-31T08:28:05.556Z,28.80
2019-03-31T08:30:34.922Z,27.17
2019-03-31T08:33:04.338Z,25.52
2019-03-31T08:35:46.727Z,24.43
2019-03-31T08:38:05.751Z,30.53
2019-03-31T08:40:35.131Z,31.93
2019-03-31T08:43:04.571Z,27.55
2019-03-31T08:45:33.934Z,26.73
2019-03-31T08:48:03.370Z,28.42
2019-03-31T08:50:34.861Z,31.12
2019-03-31T08:53:03.944Z,24.18
2019-03-31T08:55:33.423Z,27.00
2019-03-31T08:58:05.895Z,23.10
2019-03-31T09:00:39.730Z,23.47
2019-03-31T09:03:09.178Z,20.88
2019-03-31T09:05:38.543Z,21.60
2019-03-31T09:08:07.967Z,21.60
2019-03-31T09:10:37.348Z,18.27
2019-03-31T09:13:07.791Z,18.05
2019-03-31T09:15:37.239Z,20.95
2019-03-31T09:18:06.659Z,19.00
2019-03-31T09:20:36.020Z,18.62
2019-03-31T09:23:05.609Z,22.98
2019-03-31T09:25:34.979Z,27.77
2019-03-31T09:28:05.429Z,22.67
2019-03-31T09:30:34.866Z,27.70
2019-03-31T09:33:04.358Z,22.10
2019-03-31T09:35:33.833Z,21.70
2019-03-31T09:38:03.243Z,25.03
2019-03-31T09:40:32.754Z,19.87
2019-03-31T09:43:02.295Z,20.60
2019-03-31T09:45:31.649Z,18.87
2019-03-31T09:48:01.015Z,21.57
2019-03-31T09:50:31.534Z,23.60
2019-03-31T09:53:00.892Z,20.48
2019-03-31T09:55:30.333Z,18.95
2019-03-31T09:57:59.770Z,18.42
2019-03-31T10:00:46.552Z,20.37
2019-03-31T10:03:16.381Z,23.25
2019-03-31T10:05:47.948Z,21.40
2019-03-31T10:08:17.053Z,18.73
2019-03-31T10:10:46.578Z,23.60
2019-03-31T10:13:16.008Z,22.47
2019-03-31T10:15:45.382Z,16.42
2019-03-31T10:18:17.936Z,18.62
2019-03-31T10:20:46.022Z,23.67
2019-03-31T10:23:19.079Z,23.50
2019-03-31T10:25:48.541Z,21.48
2019-03-31T10:28:17.900Z,24.18
2019-03-31T10:30:47.258Z,22.85
2019-03-31T10:33:16.661Z,23.05
2019-03-31T10:35:46.012Z,26.12
2019-03-31T10:38:15.431Z,24.20
2019-03-31T10:40:44.876Z,24.15
2019-03-31T10:43:14.237Z,29.07
2019-03-31T10:45:43.659Z,21.97
2019-03-31T10:48:20.326Z,20.52
2019-03-31T10:50:44.116Z,22.07
2019-03-31T10:53:13.648Z,25.57
2019-03-31T10:55:43.016Z,25.90
2019-03-31T10:58:12.495Z,23.07
2019-03-31T11:00:44.433Z,24.50
2019-03-31T11:03:12.931Z,22.70
2019-03-31T11:05:42.455Z,18.77
2019-03-31T11:08:11.801Z,25.17
2019-03-31T11:10:41.243Z,27.67
2019-03-31T11:13:10.606Z,21.68
2019-03-31T11:15:40.045Z,14.68
2019-03-31T11:18:09.565Z,12.93
2019-03-31T11:20:38.932Z,15.93
2019-03-31T11:23:19.145Z,18.15
2019-03-31T11:25:49.636Z,15.50
2019-03-31T11:28:19.093Z,17.75
2019-03-31T11:30:50.877Z,16.00
2019-03-31T11:35:48.932Z,17.32
2019-03-31T11:38:18.327Z,10.60
2019-03-31T11:40:47.876Z,17.50
2019-03-31T11:43:17.313Z,17.92
2019-03-31T11:45:46.790Z,14.70
2019-03-31T11:48:16.216Z,9.33
2019-03-31T11:50:45.597Z,14.58
2019-03-31T11:53:17.485Z,13.47
2019-03-31T11:58:15.408Z,13.00
2019-03-31T12:00:52.294Z,17.85
2019-03-31T12:03:21.733Z,13.08
2019-03-31T12:05:51.139Z,12.75
2019-03-31T12:08:20.699Z,12.33
2019-03-31T12:10:51.122Z,28.17
2019-03-31T12:13:20.648Z,16.55
2019-03-31T12:15:50.005Z,34.03
2019-03-31T12:18:19.458Z,18.17
2019-03-31T12:20:48.960Z,11.50
2019-03-31T12:23:18.350Z,14.73
2019-03-31T12:25:47.715Z,10.75
2019-03-31T12:28:17.152Z,11.75
2019-03-31T12:30:46.641Z,8.70
2019-03-31T12:33:16.001Z,13.43
2019-03-31T12:35:45.437Z,7.10
2019-03-31T12:38:14.863Z,11.80
2019-03-31T12:40:44.208Z,10.65
2019-03-31T12:43:13.564Z,15.43
2019-03-31T12:45:43.450Z,6.78
2019-03-31T12:48:13.043Z,12.23
2019-03-31T12:50:42.424Z,6.95
2019-03-31T12:53:11.864Z,17.30
2019-03-31T12:55:41.317Z,11.90
2019-03-31T12:58:10.830Z,12.30
2019-03-31T13:00:40.305Z,13.08
2019-03-31T13:03:09.714Z,15.68
2019-03-31T13:05:39.066Z,10.38
2019-03-31T13:08:08.429Z,9.83
2019-03-31T13:10:37.820Z,12.63
2019-03-31T13:13:07.300Z,9.33
2019-03-31T13:15:36.714Z,11.12
2019-03-31T13:18:06.250Z,11.88
2019-03-31T13:20:35.810Z,10.45
2019-03-31T13:23:05.875Z,5.42
2019-03-31T13:25:35.250Z,10.75
2019-03-31T13:28:06.021Z,9.08
2019-03-31T13:30:35.636Z,13.03
2019-03-31T13:33:05.770Z,11.28
2019-03-31T13:35:35.184Z,14.35
2019-03-31T13:38:11.306Z,8.35
2019-03-31T13:40:36.676Z,9.83
2019-03-31T13:43:06.058Z,17.48
2019-03-31T13:45:35.504Z,12.45
2019-03-31T13:48:05.681Z,9.70
2019-03-31T13:50:35.104Z,10.85
2019-03-31T13:53:05.468Z,12.65
2019-03-31T13:55:34.814Z,17.90
2019-03-31T13:58:05.053Z,12.45
2019-03-31T14:00:40.866Z,14.07
2019-03-31T14:03:10.391Z,10.15
2019-03-31T14:05:39.844Z,12.90
2019-03-31T14:08:09.445Z,8.75
2019-03-31T14:10:38.827Z,8.63
2019-03-31T14:13:08.293Z,12.15
2019-03-31T14:15:37.700Z,10.05
2019-03-31T14:18:08.184Z,12.45
2019-03-31T14:20:37.551Z,14.28
2019-03-31T14:23:06.915Z,14.33
2019-03-31T14:25:36.263Z,12.03
2019-03-31T14:28:05.884Z,14.95
2019-03-31T14:30:35.420Z,10.98
2019-03-31T14:33:05.471Z,12.10
2019-03-31T14:35:37.907Z,8.20
2019-03-31T14:38:06.129Z,16.17
2019-03-31T14:40:35.889Z,17.60
2019-03-31T14:43:05.640Z,17.98
2019-03-31T14:45:35.948Z,15.80
2019-03-31T14:48:05.745Z,12.55
2019-03-31T14:50:36.868Z,12.23
2019-03-31T14:53:06.620Z,17.20
2019-03-31T14:55:36.159Z,17.00
2019-03-31T14:58:08.152Z,16.20
2019-03-31T15:00:38.069Z,17.42
2019-03-31T15:03:07.508Z,14.93
2019-03-31T15:05:36.938Z,16.82
2019-03-31T15:08:06.397Z,7.95
2019-03-31T15:10:35.875Z,13.90
2019-03-31T15:13:05.871Z,29.18
2019-03-31T15:15:35.342Z,15.30
2019-03-31T15:18:05.688Z,11.65
2019-03-31T15:20:35.134Z,13.43
2019-03-31T15:23:05.563Z,11.22
2019-03-31T15:25:35.177Z,11.10
2019-03-31T15:28:05.614Z,10.93
2019-03-31T15:30:36.805Z,17.67
2019-03-31T15:33:07.336Z,12.88
2019-03-31T15:35:37.797Z,18.40
2019-03-31T15:38:07.553Z,11.70
2019-03-31T15:40:37.000Z,22.80
2019-03-31T15:43:06.423Z,15.28
2019-03-31T15:45:35.762Z,10.53
2019-03-31T15:48:05.592Z,14.80
2019-03-31T15:50:35.023Z,17.75
2019-03-31T15:53:06.906Z,11.43
2019-03-31T15:55:36.916Z,17.50
2019-03-31T15:58:06.423Z,17.57
2019-03-31T16:00:37.575Z,11.40
2019-03-31T16:03:07.175Z,13.30
2019-03-31T16:05:37.977Z,12.75
2019-03-31T16:08:10.348Z,14.23
2019-03-31T16:10:39.850Z,14.63
2019-03-31T16:13:09.228Z,15.60
2019-03-31T16:15:38.639Z,13.65
2019-03-31T16:18:08.013Z,14.38
2019-03-31T16:20:37.445Z,15.78
2019-03-31T16:23:08.457Z,17.30
2019-03-31T16:25:39.532Z,12.47
2019-03-31T16:28:08.940Z,13.97
2019-03-31T16:30:38.357Z,12.45
2019-03-31T16:33:07.776Z,12.75
2019-03-31T16:35:37.137Z,13.35
2019-03-31T16:38:06.572Z,14.55
2019-03-31T16:40:35.927Z,14.20
2019-03-31T16:43:06.347Z,16.20
2019-03-31T16:45:35.710Z,20.15
2019-03-31T16:48:06.105Z,14.68
2019-03-31T16:50:35.634Z,10.68
2019-03-31T16:53:07.916Z,12.08
2019-03-31T16:58:09.162Z,13.62
2019-03-31T17:00:36.956Z,21.57
2019-03-31T17:03:06.324Z,17.10
2019-03-31T17:05:35.772Z,14.98
2019-03-31T17:08:05.721Z,16.23
2019-03-31T17:10:35.160Z,13.17
2019-03-31T17:13:05.440Z,11.25
2019-03-31T17:15:34.864Z,19.23
2019-03-31T17:18:04.470Z,12.65
2019-03-31T17:20:33.840Z,11.03
2019-03-31T17:23:03.424Z,8.35
2019-03-31T17:25:32.790Z,14.07
2019-03-31T17:28:02.147Z,22.25
2019-03-31T17:30:31.576Z,15.80
2019-03-31T17:33:02.073Z,16.55
2019-03-31T17:35:31.569Z,9.98
2019-03-31T17:38:01.046Z,18.90
2019-03-31T17:40:30.493Z,12.80
2019-03-31T17:42:59.845Z,19.65
2019-03-31T17:45:29.208Z,16.23
2019-03-31T17:47:58.579Z,17.32
2019-03-31T17:50:27.950Z,12.65
2019-03-31T17:52:57.370Z,20.30
2019-03-31T17:55:26.737Z,13.85
2019-03-31T17:57:56.157Z,12.05
2019-03-31T18:00:26.088Z,13.00
2019-03-31T18:02:55.445Z,15.30
2019-03-31T18:05:24.807Z,19.35
2019-03-31T18:07:54.281Z,9.48
2019-03-31T18:10:23.728Z,18.23
2019-03-31T18:12:53.181Z,14.05
2019-03-31T18:15:22.553Z,18.43
2019-03-31T18:17:52.000Z,13.75
2019-03-31T18:20:21.421Z,13.47
2019-03-31T18:22:50.775Z,11.15
2019-03-31T18:25:20.153Z,14.90
2019-03-31T18:27:49.962Z,15.68
2019-03-31T18:30:20.415Z,13.10
2019-03-31T18:32:51.221Z,12.33
2019-03-31T18:35:23.591Z,18.07
2019-03-31T18:37:52.975Z,17.65
2019-03-31T18:40:34.399Z,25.20
2019-03-31T18:42:53.613Z,18.80
2019-03-31T18:45:23.039Z,15.27
2019-03-31T18:47:52.480Z,15.78
2019-03-31T18:50:21.905Z,16.62
2019-03-31T18:52:51.326Z,15.03
2019-03-31T18:55:24.958Z,12.83
2019-03-31T18:58:03.339Z,8.48
2019-03-31T19:00:50.863Z,12.05
2019-03-31T19:03:24.980Z,12.70
2019-03-31T19:05:56.055Z,14.73
2019-03-31T19:08:27.119Z,14.53
2019-03-31T19:10:58.124Z,17.48
2019-03-31T19:13:34.851Z,17.03
2019-03-31T19:16:22.232Z,15.50
2019-03-31T19:18:53.250Z,15.20
2019-03-31T19:21:24.348Z,14.23
2019-03-31T19:24:05.962Z,15.03
2019-03-31T19:26:53.292Z,15.00
2019-03-31T19:29:30.413Z,14.50
2019-03-31T19:32:01.460Z,15.55
2019-03-31T19:34:35.399Z,10.43
2019-03-31T19:37:10.366Z,14.33
2019-03-31T19:39:50.171Z,17.35
2019-03-31T19:42:21.249Z,14.25
2019-03-31T19:44:58.033Z,10.25
2019-03-31T19:47:45.266Z,18.52
2019-03-31T19:50:19.341Z,17.10
2019-03-31T19:53:09.525Z,13.62
2019-03-31T19:55:46.801Z,13.60
2019-03-31T19:58:34.290Z,15.32
2019-03-31T20:01:05.354Z,14.45
2019-03-31T20:03:52.470Z,16.27
2019-03-31T20:06:35.521Z,13.00
2019-03-31T20:09:09.622Z,16.52
2019-03-31T20:11:40.769Z,18.75
2019-03-31T20:14:19.754Z,15.10
2019-03-31T20:17:02.925Z,14.98
2019-03-31T20:19:51.456Z,18.40
2019-03-31T20:22:25.500Z,26.12
2019-03-31T20:24:56.937Z,13.85
2019-03-31T20:27:29.059Z,21.17
2019-03-31T20:30:02.616Z,19.27
2019-03-31T20:32:33.853Z,17.32
2019-03-31T20:35:19.900Z,17.60
2019-03-31T20:38:09.129Z,18.00
2019-03-31T20:40:52.177Z,14.55
2019-03-31T20:43:25.944Z,15.28
2019-03-31T20:45:55.396Z,18.92
2019-03-31T20:48:24.879Z,14.43
2019-03-31T20:50:54.298Z,15.38
2019-03-31T20:53:23.653Z,16.30
2019-03-31T20:55:54.148Z,13.73
2019-03-31T20:58:23.494Z,17.90
2019-03-31T21:00:52.939Z,16.00
2019-03-31T21:03:22.709Z,20.47
2019-03-31T21:05:52.059Z,17.37
2019-03-31T21:08:21.499Z,9.85
2019-03-31T21:10:50.973Z,14.93
2019-03-31T21:13:20.411Z,16.30
2019-03-31T21:15:49.997Z,21.80
2019-03-31T21:18:19.358Z,15.30
2019-03-31T21:20:48.799Z,15.05
2019-03-31T21:23:18.230Z,20.00
2019-03-31T21:25:47.655Z,15.28
2019-03-31T21:28:17.022Z,22.90
2019-03-31T21:30:46.372Z,16.95
2019-03-31T21:33:15.814Z,20.52
2019-03-31T21:35:48.444Z,11.60
2019-03-31T21:38:16.239Z,14.55
2019-03-31T21:40:45.610Z,15.45
2019-03-31T21:43:15.146Z,15.68
2019-03-31T21:45:45.994Z,14.05
2019-03-31T21:48:15.367Z,24.35
2019-03-31T21:50:44.719Z,16.67
2019-03-31T21:53:14.118Z,17.32
2019-03-31T21:55:43.540Z,21.05
2019-03-31T21:58:12.914Z,16.10
2019-03-31T22:00:53.949Z,13.03
2019-03-31T22:03:24.667Z,12.90
2019-03-31T22:05:54.142Z,19.25
2019-03-31T22:08:23.632Z,22.07
2019-03-31T22:10:53.066Z,23.45
2019-03-31T22:13:22.435Z,15.40
2019-03-31T22:15:51.932Z,19.23
2019-03-31T22:18:21.408Z,11.25
2019-03-31T22:20:51.041Z,31.05
2019-03-31T22:23:20.503Z,16.90
2019-03-31T22:25:49.944Z,12.63
2019-03-31T22:28:19.374Z,28.30
2019-03-31T22:31:08.534Z,11.15
2019-03-31T22:33:37.964Z,22.98
2019-03-31T22:36:23.036Z,17.35
2019-03-31T22:38:52.987Z,16.17
2019-03-31T22:41:22.506Z,18.70
2019-03-31T22:43:52.179Z,19.17
2019-03-31T22:46:21.681Z,16.57
2019-03-31T22:48:51.255Z,15.83
2019-03-31T22:51:20.767Z,21.60
2019-03-31T22:53:50.194Z,20.05
2019-03-31T22:56:19.572Z,19.37
2019-03-31T22:58:48.981Z,14.90
2019-03-31T23:01:18.477Z,17.53
2019-03-31T23:03:47.853Z,16.30
2019-03-31T23:06:17.238Z,18.62
2019-03-31T23:08:46.704Z,17.77
2019-03-31T23:11:16.081Z,13.90
2019-03-31T23:13:45.449Z,25.23
2019-03-31T23:16:15.036Z,16.80
2019-03-31T23:18:44.512Z,17.12
2019-03-31T23:21:13.939Z,16.67
2019-03-31T23:23:43.443Z,15.32
2019-03-31T23:26:12.897Z,18.60
2019-03-31T23:28:48.338Z,18.27
2019-03-31T23:31:18.069Z,19.75
2019-03-31T23:33:47.587Z,26.62
2019-03-31T23:36:17.032Z,12.53
2019-03-31T23:38:46.415Z,19.45
2019-03-31T23:41:16.845Z,16.07
2019-03-31T23:43:46.198Z,17.85
2019-03-31T23:46:15.641Z,16.00
2019-03-31T23:48:45.074Z,24.15
2019-03-31T23:51:14.567Z,13.97
2019-03-31T23:53:44.069Z,15.20
2019-03-31T23:56:13.560Z,12.37
2019-03-31T23:58:42.938Z,16.95
